Aeroporto :
LOGIN :

Iscrizione | Disclaimer

   EN    FR    IT 

 










Sommario :    VFR   VFR Marginale   IFR   IFR Intensivo   IFR Molto Intensivo
Visibilità : 
Base nubi : 
>= 8 km
>= 3000ft
5 / 8 km
1000 / 3000 ft
1500m / 5 km
500 / 1000 ft
800 / 1500m
200 / 500 ft
< 800m
< 200 ft
Simboli :   Temporali  Nebbia  Neve Forte  Precipitazioni Forti  Vento > 20 kt
SIGMETs :   Varie  Temporali  Ghiacco  Turbolenza  Onda orograficha  Ceneri Vulcaniche







- Altitudine del aeroporto : 489 ft
- Codice IATA : GDN


EPGD - Gdansk

ULTIMO METAR :
  • 191400Z 05008KT 9999 FEW003 SCT026 17/16 Q1009

METARs OBSOLETI :
  • 191330Z 05008KT 010V080 9999 FEW003 SCT013 BKN019 16/15 Q1009
  • 191300Z 06007KT 9999 FEW005 SCT015 BKN034 16/15 Q1009
  • 191230Z 05008KT 9999 SCT003 BKN005 BKN022 16/15 Q1009
  • 191200Z 04005KT 020V080 6000 -RA SCT006 BKN041 16/15 Q1009
  • 191130Z 08007KT 9999 SCT008 BKN041 17/15 Q1010

TAF TAF EPGD
Valido dal 19 a 12 ore il 20 a 12 ore UTC


191130Z 1912/2012 11007KT 9999 BKN035
TEMPO 1912/1914 -SHRA BKN008 BKN014
TEMPO 1914/1924 3000 SHRA BKN003 BKN020CB
PROB40
TEMPO 1915/1919 TSRA BKN012CB
BECMG 1919/1922 3000 BR
TEMPO 1922/2006 0300 FG OVC001
BECMG 2007/2009 9999
Nessun NOTAM noto per questo aeroporto.
1 SIGMET conosciuto per la FIR Warszawa (EPWW) :
 
Temporali frequenti
EPWW SIGMET 1 VALID 191215/191615 EPWA
EPWW WARSAW FIR FRQ TS OBS S OF N51 AND E OF E018 TOP ABV FL320 MOV NW INTSF=



MetMap, La meteo Aeronautica in un colpo d'occhio ! - Copyright ORBIFLY Dicembre 2007 - Disclaimer

ORBIFLY MET'MAP TEAM :

Programmazione e sviluppo : Alexandra Zaïnal
Concezione e sviluppo : Baudouin d'Aumeries
Co-Programmazione e sviluppo : Marc-Olivier Méhu
Supporto tecnico e logistico : Manuel Goepfert
Aiuto per la traduzione : Arnaldo La Scala

Contatto : metmap@orbifly.com




FONTI E CREDITI :

   NOAA